createdAt,value
2022-11-06T06:00:58.023Z,15.10
2022-11-06T06:06:01.603Z,15.10
2022-11-06T06:11:07.358Z,15.20
2022-11-06T06:16:12.286Z,15.10
2022-11-06T06:21:15.829Z,15.20
2022-11-06T06:26:19.369Z,15.30
2022-11-06T06:31:24.534Z,15.20
2022-11-06T06:36:28.361Z,15.20
2022-11-06T06:41:32.178Z,15.20
2022-11-06T06:46:37.059Z,15.20
2022-11-06T06:51:40.627Z,15.20
2022-11-06T06:56:44.414Z,15.10
2022-11-06T07:01:49.434Z,15.10
2022-11-06T07:06:55.377Z,15.10
2022-11-06T07:11:58.991Z,15.10
2022-11-06T07:17:03.896Z,15.10
2022-11-06T07:22:07.413Z,15.10
2022-11-06T07:27:10.953Z,15.20
2022-11-06T07:32:15.938Z,15.20
2022-11-06T07:37:19.696Z,15.20
2022-11-06T07:42:23.239Z,15.20
2022-11-06T07:47:32.990Z,15.30
2022-11-06T07:52:36.544Z,15.20
2022-11-06T07:57:40.048Z,15.30
2022-11-06T08:02:45.042Z,15.30
2022-11-06T08:07:48.762Z,15.30
2022-11-06T08:12:52.281Z,15.30
2022-11-06T08:17:57.142Z,15.30
2022-11-06T08:23:01.397Z,15.30
2022-11-06T08:28:05.308Z,15.30
2022-11-06T08:33:10.250Z,15.40
2022-11-06T08:38:14.207Z,15.40
2022-11-06T08:43:17.955Z,15.40
2022-11-06T08:48:22.857Z,15.40
2022-11-06T08:53:26.512Z,15.40
2022-11-06T08:58:30.207Z,15.40
2022-11-06T09:03:35.168Z,15.50
2022-11-06T09:08:38.723Z,15.60
2022-11-06T09:13:42.288Z,15.60
2022-11-06T09:18:47.166Z,15.60
2022-11-06T09:23:50.967Z,15.60
2022-11-06T09:28:54.504Z,15.50
2022-11-06T09:33:59.393Z,15.50
2022-11-06T09:39:02.933Z,15.50
2022-11-06T09:44:20.294Z,15.50
2022-11-06T09:49:31.659Z,15.50
2022-11-06T09:54:39.002Z,15.50
2022-11-06T09:59:43.109Z,15.50
2022-11-06T10:04:54.224Z,15.50
2022-11-06T10:09:58.630Z,15.50
2022-11-06T10:15:17.416Z,15.50
2022-11-06T10:20:29.303Z,15.50
2022-11-06T10:25:47.250Z,15.50
2022-11-06T10:30:58.823Z,15.60
2022-11-06T10:36:07.734Z,15.70
2022-11-06T10:41:18.265Z,15.70
2022-11-06T10:46:28.966Z,15.70
2022-11-06T10:51:55.938Z,16.00
2022-11-06T10:57:12.779Z,16.70
2022-11-06T11:02:26.372Z,17.20
2022-11-06T11:07:35.274Z,17.60
2022-11-06T11:12:38.924Z,17.80
2022-11-06T11:17:43.750Z,18.00
2022-11-06T11:23:05.551Z,18.10
2022-11-06T11:28:25.717Z,18.10
2022-11-06T11:33:29.973Z,18.20
2022-11-06T11:38:37.581Z,18.10
2022-11-06T11:43:42.720Z,17.80
2022-11-06T11:48:48.092Z,17.40
2022-11-06T11:53:54.386Z,17.10
2022-11-06T11:59:01.102Z,16.80
2022-11-06T12:04:15.540Z,16.60
2022-11-06T12:09:20.716Z,16.50
2022-11-06T12:14:35.627Z,16.40
2022-11-06T12:19:41.991Z,16.70
2022-11-06T12:24:52.407Z,16.90
2022-11-06T12:30:04.649Z,17.10
2022-11-06T12:35:16.290Z,17.30
2022-11-06T12:40:25.483Z,17.30
2022-11-06T12:45:44.863Z,17.40
2022-11-06T12:50:56.144Z,17.30
2022-11-06T12:56:10.460Z,17.30
2022-11-06T13:01:21.668Z,17.60
2022-11-06T13:06:35.179Z,18.10
2022-11-06T13:11:47.879Z,18.50
2022-11-06T13:17:01.059Z,18.90
2022-11-06T13:22:24.527Z,19.10
2022-11-06T13:27:38.744Z,19.20
2022-11-06T13:32:47.406Z,19.40
2022-11-06T13:37:57.284Z,19.60
2022-11-06T13:43:07.138Z,19.40
2022-11-06T13:48:30.863Z,19.30
2022-11-06T13:53:42.714Z,19.10
2022-11-06T13:59:17.761Z,19.00
2022-11-06T14:04:59.739Z,18.70
2022-11-06T14:10:04.092Z,18.60
2022-11-06T14:15:29.789Z,18.40
2022-11-06T14:20:35.536Z,18.70
2022-11-06T14:26:00.096Z,18.70
2022-11-06T14:31:12.441Z,18.90
2022-11-06T14:36:29.198Z,19.20
2022-11-06T14:42:06.174Z,19.40
2022-11-06T14:47:30.341Z,19.50
2022-11-06T14:52:45.179Z,19.40
2022-11-06T14:57:52.961Z,19.00
2022-11-06T15:02:58.123Z,18.60
2022-11-06T15:08:05.882Z,18.30
2022-11-06T15:13:12.916Z,18.10
2022-11-06T15:18:20.745Z,17.80
2022-11-06T15:23:28.017Z,17.70
2022-11-06T15:28:40.414Z,17.60
2022-11-06T15:33:55.887Z,17.70
2022-11-06T15:39:00.669Z,17.70
2022-11-06T15:44:04.681Z,17.60
2022-11-06T15:49:19.475Z,17.50
2022-11-06T15:54:36.023Z,17.50
2022-11-06T15:59:39.842Z,17.40
2022-11-06T16:04:45.353Z,17.30
2022-11-06T16:09:49.222Z,17.30
2022-11-06T16:14:52.788Z,17.10
2022-11-06T16:20:04.014Z,17.00
2022-11-06T16:25:08.812Z,16.80
2022-11-06T16:30:25.346Z,16.70
2022-11-06T16:35:35.476Z,16.60
2022-11-06T16:40:51.012Z,16.50
2022-11-06T16:45:57.664Z,16.40
2022-11-06T16:51:14.608Z,16.40
2022-11-06T16:56:24.559Z,16.30
2022-11-06T17:01:30.790Z,16.20
2022-11-06T17:06:38.056Z,16.10
2022-11-06T17:11:41.707Z,16.00
2022-11-06T17:16:50.705Z,15.90
2022-11-06T17:21:56.183Z,15.80
2022-11-06T17:26:59.682Z,15.80
2022-11-06T17:32:03.341Z,15.80
2022-11-06T17:37:10.784Z,15.70
2022-11-06T17:42:14.408Z,15.70
2022-11-06T17:47:17.922Z,15.60
2022-11-06T17:52:22.936Z,15.60
2022-11-06T17:57:26.607Z,15.50
2022-11-06T18:02:55.277Z,15.50
2022-11-06T18:07:56.931Z,15.40
2022-11-06T18:13:00.418Z,15.40
2022-11-06T18:18:04.286Z,15.40
2022-11-06T18:23:09.156Z,15.30
2022-11-06T18:28:12.676Z,15.20
2022-11-06T18:33:16.277Z,15.20
2022-11-06T18:38:21.255Z,15.20
2022-11-06T18:43:25.120Z,15.10
2022-11-06T18:48:28.637Z,15.00
2022-11-06T18:53:33.704Z,15.00
2022-11-06T18:58:37.341Z,14.90
2022-11-06T19:03:41.905Z,14.90
2022-11-06T19:08:47.073Z,14.80
2022-11-06T19:13:50.615Z,14.80
2022-11-06T19:24:06.979Z,14.80
2022-11-06T19:29:10.637Z,14.70
2022-11-06T19:34:14.970Z,14.70
2022-11-06T19:39:20.121Z,14.60
2022-11-06T19:44:23.774Z,14.60
2022-11-06T19:49:27.869Z,14.60
2022-11-06T19:54:33.496Z,14.60
2022-11-06T19:59:38.225Z,14.60
2022-11-06T20:04:42.427Z,14.70
2022-11-06T20:09:48.237Z,14.60
2022-11-06T20:14:52.684Z,14.60
2022-11-06T20:19:57.201Z,14.70
2022-11-06T20:25:02.763Z,14.70
2022-11-06T20:30:08.807Z,14.70
2022-11-06T20:35:17.068Z,14.80
2022-11-06T20:40:23.383Z,14.90
2022-11-06T20:45:28.532Z,14.90
2022-11-06T20:50:33.096Z,15.00
2022-11-06T20:55:38.764Z,15.00
2022-11-06T21:00:43.247Z,15.10
2022-11-06T21:05:47.433Z,15.10
2022-11-06T21:11:03.329Z,15.10
2022-11-06T21:16:13.849Z,15.20
2022-11-06T21:21:21.339Z,15.20
2022-11-06T21:26:28.823Z,15.20
2022-11-06T21:31:34.184Z,15.20
2022-11-06T21:36:39.100Z,15.10
2022-11-06T21:41:44.603Z,15.10
2022-11-06T21:46:48.273Z,15.00
2022-11-06T21:51:51.803Z,15.00
2022-11-06T21:56:56.750Z,15.00
2022-11-06T22:02:00.364Z,14.90
2022-11-06T22:07:04.007Z,14.90
2022-11-06T22:12:09.324Z,14.90
2022-11-06T22:17:12.849Z,14.90
2022-11-06T22:22:16.386Z,14.90
2022-11-06T22:27:21.298Z,14.90
2022-11-06T22:32:24.921Z,14.90
2022-11-06T22:37:28.741Z,14.80
2022-11-06T22:42:33.766Z,14.90
2022-11-06T22:47:37.379Z,14.90
2022-11-06T22:52:40.960Z,14.90
2022-11-06T22:57:45.864Z,14.90
2022-11-06T23:02:49.607Z,14.90
2022-11-06T23:07:53.215Z,14.90
2022-11-06T23:12:58.909Z,14.90
2022-11-06T23:18:02.905Z,14.80
2022-11-06T23:23:06.553Z,14.80
2022-11-06T23:28:11.673Z,14.80
